Portada
METAR-TAF:

METAR-TAF

Aeroports :

Béchar, Algèria

latitud: 31-37N, longitud: 002-14W, altitud: 773 m

Observació

L'informe es va fer fa 1 hora i 13 minuts, a les 06:00 UTC
Vent 4 kt del Nord-Est
Temperatura 8°C
Humitat 66%
Pressió 1018 hPa
Visibilitat 10 km o més
sense núvols per sota de 1500 mi sense presència de cumulonimbus.

METAR: DAOR 160600Z 04004KT CAVOK 08/02 Q1018

Hora: 08:13 (07:13 UTC)

Pronòstic

L'informe es va fer fa 2 hores i 13 minuts, a les 05:00 UTC
Pronòstic vàlid del 16 a les 06 UTC al 16 a les 15 UTC
Vent 8 kt del Est
Visibilitat 10 km o més
sense núvols per sota de 1500 mi sense presència de cumulonimbus.

TAF: DAOR 160500Z 1606/1615 10008KT CAVOK

Observacions i pronòstics meteorològics de més de 4000 aeroports (METAR i TAF).

Les estacions disponibles són els punts grocs i vermells al mapa.

Posi el ratolí al punt desitjat per veure el nom de l'estació.

Feu clic per veure les observacions i els pronòstics meteorològics.

Per canviar el mapa: feu clic els botons verds amb una creu de color negre per apropar; al botó verd amb un guió per allunyar la imatge; o en les fletxes verdes per a mapes adjacents.


METAR-TAF: